createdAt,value
2023-03-13T00:00:04.978Z,11.50
2023-03-13T00:01:12.422Z,14.17
2023-03-13T00:02:13.897Z,14.93
2023-03-13T00:03:15.252Z,9.47
2023-03-13T00:04:16.665Z,11.87
2023-03-13T00:05:18.116Z,12.80
2023-03-13T00:06:19.589Z,11.80
2023-03-13T00:07:20.983Z,11.00
2023-03-13T00:08:22.358Z,11.50
2023-03-13T00:09:23.763Z,13.40
2023-03-13T00:10:26.171Z,10.17
2023-03-13T00:11:27.717Z,13.07
2023-03-13T00:12:29.120Z,16.07
2023-03-13T00:13:30.476Z,11.97
2023-03-13T00:14:31.827Z,10.47
2023-03-13T00:15:33.186Z,12.53
2023-03-13T00:16:35.681Z,11.27
2023-03-13T00:17:37.095Z,10.70
2023-03-13T00:18:38.468Z,9.83
2023-03-13T00:19:39.941Z,9.00
2023-03-13T00:20:41.311Z,13.20
2023-03-13T00:21:42.717Z,13.67
2023-03-13T00:22:44.133Z,10.33
2023-03-13T00:23:45.819Z,10.20
2023-03-13T00:24:47.187Z,16.33
2023-03-13T00:25:48.584Z,9.17
2023-03-13T00:26:49.921Z,12.33
2023-03-13T00:27:51.324Z,10.37
2023-03-13T00:28:53.195Z,13.53
2023-03-13T00:29:54.547Z,9.60
2023-03-13T00:31:14.519Z,12.47
2023-03-13T00:32:16.180Z,12.57
2023-03-13T00:33:17.589Z,10.77
2023-03-13T00:34:18.870Z,12.10
2023-03-13T00:35:20.417Z,10.60
2023-03-13T00:36:23.303Z,11.20
2023-03-13T00:37:24.692Z,10.60
2023-03-13T00:38:27.208Z,7.97
2023-03-13T00:39:28.522Z,10.40
2023-03-13T00:40:30.250Z,9.73
2023-03-13T00:41:32.545Z,9.63
2023-03-13T00:42:33.944Z,11.93
2023-03-13T00:43:35.401Z,9.87
2023-03-13T00:44:36.843Z,10.90
2023-03-13T00:45:38.204Z,10.03
2023-03-13T00:46:39.552Z,9.40
2023-03-13T00:47:41.094Z,13.40
2023-03-13T00:48:43.871Z,7.97
2023-03-13T00:49:46.826Z,10.47
2023-03-13T00:50:48.245Z,7.93
2023-03-13T00:51:49.662Z,7.87
2023-03-13T00:52:50.968Z,8.50
2023-03-13T00:53:52.923Z,11.87
2023-03-13T00:54:54.406Z,10.23
2023-03-13T00:56:06.505Z,8.03
2023-03-13T00:57:08.056Z,7.70
2023-03-13T00:58:09.681Z,12.33
2023-03-13T00:59:11.162Z,7.73
2023-03-13T01:00:12.959Z,6.70
2023-03-13T01:01:18.847Z,10.70
2023-03-13T01:02:20.537Z,10.07
2023-03-13T01:03:25.352Z,10.87
2023-03-13T01:04:27.022Z,9.97
2023-03-13T01:05:28.390Z,10.63
2023-03-13T01:06:30.628Z,9.13
2023-03-13T01:07:32.727Z,11.93
2023-03-13T01:08:34.540Z,16.50
2023-03-13T01:09:36.269Z,8.00
2023-03-13T01:10:37.639Z,13.77
2023-03-13T01:11:40.355Z,13.20
2023-03-13T01:12:42.134Z,7.97
2023-03-13T01:13:43.892Z,14.93
2023-03-13T01:14:45.250Z,10.47
2023-03-13T01:15:46.681Z,13.50
2023-03-13T01:16:48.776Z,8.07
2023-03-13T01:17:50.189Z,10.03
2023-03-13T01:18:52.799Z,12.00
2023-03-13T01:19:57.253Z,11.27
2023-03-13T01:20:58.577Z,12.00
2023-03-13T01:21:59.946Z,9.43
2023-03-13T01:23:01.268Z,9.53
2023-03-13T01:24:03.007Z,10.13
2023-03-13T01:25:04.626Z,11.17
2023-03-13T01:26:06.816Z,11.43
2023-03-13T01:27:08.134Z,8.73
2023-03-13T01:28:09.528Z,12.53
2023-03-13T01:29:10.907Z,9.20
2023-03-13T01:30:12.440Z,11.90
2023-03-13T01:31:24.514Z,9.37
2023-03-13T01:32:26.002Z,12.13
2023-03-13T01:33:27.399Z,10.03
2023-03-13T01:34:28.805Z,7.13
2023-03-13T01:35:30.321Z,13.13
2023-03-13T01:36:32.247Z,11.23
2023-03-13T01:37:33.629Z,9.07
2023-03-13T01:38:35.272Z,11.00
2023-03-13T01:39:36.621Z,10.70
2023-03-13T01:40:45.440Z,15.23
2023-03-13T01:41:46.791Z,14.80
2023-03-13T01:42:51.487Z,12.63
2023-03-13T01:43:52.903Z,11.47
2023-03-13T01:44:55.661Z,8.13
2023-03-13T01:46:03.171Z,8.50
2023-03-13T01:47:17.304Z,11.83
2023-03-13T01:49:15.412Z,8.00
2023-03-13T01:50:25.068Z,8.00
2023-03-13T01:51:36.731Z,12.73
2023-03-13T01:52:38.101Z,10.77
2023-03-13T01:54:14.192Z,11.40
2023-03-13T01:55:17.460Z,8.73
2023-03-13T01:56:25.064Z,11.97
2023-03-13T01:57:37.611Z,13.17
2023-03-13T01:58:39.333Z,13.67
2023-03-13T01:59:43.511Z,10.20
2023-03-13T02:00:45.772Z,10.67
2023-03-13T02:01:47.531Z,9.37
2023-03-13T02:02:50.772Z,10.10
2023-03-13T02:03:52.528Z,10.73
2023-03-13T02:04:57.107Z,15.10
2023-03-13T02:05:59.433Z,10.03
2023-03-13T02:07:02.720Z,12.20
2023-03-13T02:08:21.642Z,9.83
2023-03-13T02:09:24.716Z,8.83
2023-03-13T02:10:26.492Z,9.90
2023-03-13T02:11:43.965Z,8.87
2023-03-13T02:12:46.667Z,10.20
2023-03-13T02:13:48.879Z,6.97
2023-03-13T02:14:50.473Z,10.40
2023-03-13T02:15:52.148Z,10.37
2023-03-13T02:16:54.733Z,10.97
2023-03-13T02:17:56.214Z,13.57
2023-03-13T02:18:58.757Z,8.80
2023-03-13T02:20:00.113Z,11.33
2023-03-13T02:21:05.386Z,9.97
2023-03-13T02:22:21.694Z,9.70
2023-03-13T02:23:33.595Z,10.10
2023-03-13T02:24:52.144Z,7.33
2023-03-13T02:25:53.823Z,7.90
2023-03-13T02:26:59.326Z,9.83
2023-03-13T02:28:01.792Z,10.07
2023-03-13T02:29:04.713Z,6.73
2023-03-13T02:30:08.800Z,8.60
2023-03-13T02:31:10.542Z,10.47
2023-03-13T02:32:12.181Z,8.53
2023-03-13T02:33:14.321Z,8.97
2023-03-13T02:34:17.610Z,10.90
2023-03-13T02:35:20.884Z,9.17
2023-03-13T02:36:23.288Z,8.63
2023-03-13T02:37:25.909Z,11.27
2023-03-13T02:38:29.144Z,8.77
2023-03-13T02:39:31.539Z,9.17
2023-03-13T02:40:35.046Z,9.77
2023-03-13T02:41:36.805Z,8.50
2023-03-13T02:42:40.783Z,9.23
2023-03-13T02:43:42.234Z,8.87
2023-03-13T02:44:46.395Z,8.77
2023-03-13T02:46:00.709Z,10.83
2023-03-13T02:47:02.183Z,10.17
2023-03-13T02:48:03.739Z,6.67
2023-03-13T02:49:18.976Z,10.57
2023-03-13T02:50:20.887Z,5.77
2023-03-13T02:51:22.189Z,10.13
2023-03-13T02:52:25.998Z,6.63
2023-03-13T02:53:27.426Z,6.97
2023-03-13T02:54:33.611Z,7.63
2023-03-13T02:55:37.032Z,9.50
2023-03-13T02:56:40.773Z,8.00
2023-03-13T02:57:43.598Z,8.33
2023-03-13T02:58:50.423Z,6.77
2023-03-13T02:59:54.652Z,10.77
2023-03-13T03:00:56.018Z,6.47
2023-03-13T03:01:57.552Z,4.60
2023-03-13T03:02:58.915Z,6.63
2023-03-13T03:04:00.269Z,8.57
2023-03-13T03:05:01.636Z,7.30
2023-03-13T03:06:03.807Z,12.83
2023-03-13T03:07:05.253Z,5.70
2023-03-13T03:08:07.120Z,6.27
2023-03-13T03:09:08.475Z,7.90
2023-03-13T03:10:11.624Z,6.70
2023-03-13T03:11:13.468Z,7.47
2023-03-13T03:12:16.615Z,6.60
2023-03-13T03:13:17.960Z,6.43
2023-03-13T03:14:19.416Z,8.47
2023-03-13T03:15:23.565Z,6.60
2023-03-13T03:16:25.039Z,5.50
2023-03-13T03:17:26.498Z,6.53
2023-03-13T03:18:28.379Z,6.23
2023-03-13T03:19:29.684Z,7.20
2023-03-13T03:20:31.069Z,6.43
2023-03-13T03:21:32.995Z,6.27
2023-03-13T03:22:34.718Z,6.83
2023-03-13T03:23:36.923Z,6.63
2023-03-13T03:24:38.270Z,4.87
2023-03-13T03:25:39.599Z,5.73
2023-03-13T03:26:41.270Z,5.43
2023-03-13T03:27:48.721Z,5.30
2023-03-13T03:28:50.693Z,5.37
2023-03-13T03:29:52.161Z,5.50
2023-03-13T03:30:54.370Z,5.70
2023-03-13T03:31:56.222Z,6.77
2023-03-13T03:32:57.981Z,8.30
2023-03-13T03:33:59.600Z,4.40
2023-03-13T03:35:01.045Z,6.20
2023-03-13T03:36:07.432Z,5.27
2023-03-13T03:37:09.528Z,6.93
2023-03-13T03:38:11.083Z,5.70
2023-03-13T03:39:12.518Z,7.53
2023-03-13T03:40:14.335Z,5.50
2023-03-13T03:41:16.944Z,6.80
2023-03-13T03:42:18.659Z,5.70
2023-03-13T03:43:20.045Z,4.93
2023-03-13T03:44:21.709Z,3.70
2023-03-13T03:45:27.784Z,7.63
2023-03-13T03:46:29.399Z,7.47
2023-03-13T03:47:31.396Z,5.77
2023-03-13T03:48:34.214Z,4.80
2023-03-13T03:49:36.384Z,6.53
2023-03-13T03:50:37.969Z,6.47
2023-03-13T03:51:39.488Z,6.77
2023-03-13T03:52:41.154Z,5.33
2023-03-13T03:53:42.629Z,7.10
2023-03-13T03:54:44.275Z,6.00
2023-03-13T03:55:45.995Z,4.70
2023-03-13T03:56:47.416Z,4.63
2023-03-13T03:57:48.798Z,5.67
2023-03-13T03:58:57.327Z,6.83
2023-03-13T04:00:28.061Z,5.77
2023-03-13T04:01:29.544Z,6.53
2023-03-13T04:02:31.160Z,5.37
2023-03-13T04:03:33.038Z,6.37
2023-03-13T04:04:34.701Z,4.07
2023-03-13T04:05:58.440Z,6.00
2023-03-13T04:06:59.917Z,5.70
2023-03-13T04:08:03.350Z,3.17
2023-03-13T04:09:05.645Z,3.20
2023-03-13T04:10:08.714Z,4.63
2023-03-13T04:11:14.562Z,4.47
2023-03-13T04:12:22.418Z,3.77
2023-03-13T04:13:26.310Z,5.60
2023-03-13T04:14:31.625Z,5.07
2023-03-13T04:15:34.042Z,3.43
2023-03-13T04:16:35.769Z,5.20
2023-03-13T04:17:37.171Z,5.90
2023-03-13T04:18:38.897Z,5.23
2023-03-13T04:19:40.279Z,4.47
2023-03-13T04:20:41.875Z,4.27
2023-03-13T04:21:43.738Z,2.50
2023-03-13T04:22:49.150Z,6.80
2023-03-13T04:23:51.703Z,3.30
2023-03-13T04:24:53.283Z,4.83
2023-03-13T04:25:56.236Z,4.60
2023-03-13T04:26:57.873Z,4.00
2023-03-13T04:27:59.999Z,5.00
2023-03-13T04:29:07.600Z,4.67
2023-03-13T04:30:34.389Z,7.57
2023-03-13T04:31:44.665Z,7.23
2023-03-13T04:33:09.140Z,5.50
2023-03-13T04:34:18.980Z,4.93
2023-03-13T04:35:28.588Z,4.77
2023-03-13T04:37:02.056Z,4.80
2023-03-13T04:38:16.872Z,6.20
2023-03-13T04:39:50.387Z,3.70
2023-03-13T04:41:10.268Z,4.97
2023-03-13T04:42:20.878Z,3.90
2023-03-13T04:43:57.773Z,4.30
2023-03-13T04:45:29.937Z,5.70
2023-03-13T04:46:51.931Z,2.23
2023-03-13T04:48:08.742Z,3.43
2023-03-13T04:49:33.226Z,4.63
2023-03-13T04:50:49.801Z,4.03
2023-03-13T04:52:05.210Z,4.23
2023-03-13T04:53:35.594Z,6.03
2023-03-13T04:55:08.801Z,3.67
2023-03-13T04:56:41.148Z,6.03
2023-03-13T04:58:11.641Z,4.13
2023-03-13T04:59:35.324Z,6.80
2023-03-13T05:00:58.367Z,4.73
2023-03-13T05:02:22.609Z,5.30
2023-03-13T05:03:43.076Z,4.80
2023-03-13T05:05:05.251Z,3.20
2023-03-13T05:06:25.621Z,2.47
2023-03-13T05:07:45.032Z,4.03
2023-03-13T05:09:03.022Z,3.13
2023-03-13T05:10:33.921Z,2.70
2023-03-13T05:11:42.435Z,3.83
2023-03-13T05:13:02.842Z,5.83
2023-03-13T05:14:15.017Z,3.87
2023-03-13T05:15:39.843Z,5.87
2023-03-13T05:17:11.078Z,3.80
2023-03-13T05:18:29.137Z,3.33
2023-03-13T05:19:49.917Z,4.47
2023-03-13T05:20:51.940Z,4.23
2023-03-13T05:22:11.832Z,5.23
2023-03-13T05:23:24.784Z,6.43
2023-03-13T05:24:39.144Z,2.80
2023-03-13T05:26:06.925Z,6.43
2023-03-13T05:27:11.383Z,3.43
2023-03-13T05:28:26.875Z,4.57
2023-03-13T05:29:47.097Z,5.23
2023-03-13T05:30:53.584Z,5.83
2023-03-13T05:32:12.461Z,5.53
2023-03-13T05:33:34.105Z,4.37
2023-03-13T05:35:01.460Z,4.40
2023-03-13T05:36:21.701Z,4.03
2023-03-13T05:37:41.266Z,3.23
2023-03-13T05:38:55.206Z,6.13
2023-03-13T05:40:26.025Z,4.73
2023-03-13T05:41:27.330Z,4.90
2023-03-13T05:42:34.438Z,4.03
2023-03-13T05:43:46.791Z,4.30
2023-03-13T05:45:04.513Z,2.77
2023-03-13T05:46:19.813Z,4.27
2023-03-13T05:47:50.512Z,5.90
2023-03-13T05:49:12.505Z,3.77
2023-03-13T05:50:34.144Z,4.37
2023-03-13T05:51:53.823Z,3.53
2023-03-13T05:53:24.796Z,5.03
2023-03-13T05:54:58.811Z,4.57
2023-03-13T05:56:26.472Z,5.67
2023-03-13T05:57:57.243Z,2.93
2023-03-13T05:59:17.357Z,2.23
2023-03-13T06:00:19.240Z,2.93
2023-03-13T06:01:43.678Z,3.30
2023-03-13T06:03:05.346Z,2.50
2023-03-13T06:04:14.355Z,4.43
2023-03-13T06:05:16.444Z,3.97
2023-03-13T06:06:18.057Z,2.83
2023-03-13T06:07:24.113Z,3.60
2023-03-13T06:08:26.054Z,2.80
2023-03-13T06:09:27.497Z,1.87
2023-03-13T06:10:30.686Z,3.63
2023-03-13T06:11:34.486Z,3.53
2023-03-13T06:12:36.870Z,4.63
2023-03-13T06:13:39.145Z,3.40
2023-03-13T06:14:51.255Z,3.60
2023-03-13T06:16:11.501Z,4.83
2023-03-13T06:17:23.139Z,2.70
2023-03-13T06:18:24.988Z,5.17
2023-03-13T06:19:26.392Z,2.53
2023-03-13T06:20:27.690Z,3.63
2023-03-13T06:21:29.134Z,3.23
2023-03-13T06:22:30.928Z,2.83
2023-03-13T06:23:32.396Z,2.10
2023-03-13T06:24:33.865Z,2.93
2023-03-13T06:25:35.278Z,4.77
2023-03-13T06:26:36.656Z,4.53
2023-03-13T06:27:38.063Z,5.83
2023-03-13T06:28:39.444Z,3.33
2023-03-13T06:29:40.809Z,2.07
2023-03-13T06:30:42.420Z,1.63
2023-03-13T06:31:44.015Z,3.23
2023-03-13T06:32:45.735Z,2.83
2023-03-13T06:33:49.639Z,3.33
2023-03-13T06:34:52.295Z,3.30
2023-03-13T06:35:56.971Z,3.10
2023-03-13T06:36:58.772Z,2.30
2023-03-13T06:38:00.130Z,2.07
2023-03-13T06:39:01.515Z,3.73
2023-03-13T06:40:03.866Z,3.97
2023-03-13T06:41:05.369Z,5.47
2023-03-13T06:42:07.150Z,2.30
2023-03-13T06:43:08.547Z,1.50
2023-03-13T06:44:10.010Z,2.77
2023-03-13T06:45:11.583Z,2.43
2023-03-13T06:46:17.310Z,2.90
2023-03-13T06:47:18.751Z,4.67
2023-03-13T06:48:21.596Z,2.80
2023-03-13T06:49:23.078Z,2.40
2023-03-13T06:50:24.521Z,1.37
2023-03-13T06:51:26.591Z,2.13
2023-03-13T06:52:37.749Z,2.53
2023-03-13T06:53:46.237Z,1.97
2023-03-13T06:54:47.705Z,2.10
2023-03-13T06:55:51.211Z,2.80
2023-03-13T06:56:53.291Z,2.80
2023-03-13T06:57:54.644Z,1.67
2023-03-13T06:58:56.943Z,3.80
2023-03-13T07:00:00.065Z,2.03
2023-03-13T07:01:11.522Z,2.57
2023-03-13T07:02:13.086Z,2.30
2023-03-13T07:03:14.521Z,2.87
2023-03-13T07:04:16.359Z,2.73
2023-03-13T07:05:17.808Z,2.80
2023-03-13T07:06:19.177Z,2.20
2023-03-13T07:07:31.130Z,3.93
2023-03-13T07:08:33.844Z,2.07
2023-03-13T07:09:35.160Z,1.93
2023-03-13T07:10:36.531Z,2.37
2023-03-13T07:11:37.959Z,1.83
2023-03-13T07:12:39.389Z,1.50
2023-03-13T07:13:40.808Z,1.97
2023-03-13T07:14:42.375Z,1.30
2023-03-13T07:15:43.695Z,2.80
2023-03-13T07:16:46.212Z,2.20
2023-03-13T07:17:47.819Z,2.63
2023-03-13T07:18:49.270Z,1.80
2023-03-13T07:19:50.691Z,2.20
2023-03-13T07:20:55.839Z,2.50
2023-03-13T07:21:57.169Z,2.97
2023-03-13T07:22:58.491Z,3.37
2023-03-13T07:23:59.908Z,3.10
2023-03-13T07:25:01.345Z,1.43
2023-03-13T07:26:04.173Z,2.17
2023-03-13T07:27:07.980Z,1.43
2023-03-13T07:28:09.732Z,2.97
2023-03-13T07:29:11.037Z,2.47
2023-03-13T07:30:12.616Z,2.00
2023-03-13T07:31:15.366Z,2.03
2023-03-13T07:32:17.060Z,1.37
2023-03-13T07:33:18.902Z,2.00
2023-03-13T07:34:20.216Z,1.30
2023-03-13T07:35:21.544Z,1.53
2023-03-13T07:36:23.015Z,1.37
2023-03-13T07:37:24.462Z,1.77
2023-03-13T07:38:25.884Z,1.57
2023-03-13T07:39:27.374Z,1.93
2023-03-13T07:40:28.692Z,1.87
2023-03-13T07:41:29.994Z,1.10
2023-03-13T07:42:31.327Z,1.20
2023-03-13T07:43:32.846Z,5.03
2023-03-13T07:44:34.142Z,2.80
2023-03-13T07:45:35.549Z,2.07
2023-03-13T07:46:36.910Z,2.93
2023-03-13T07:47:38.221Z,1.30
2023-03-13T07:48:41.019Z,2.90
2023-03-13T07:49:44.110Z,2.03
2023-03-13T07:50:45.717Z,1.13
2023-03-13T07:51:48.193Z,2.00
2023-03-13T07:52:49.605Z,1.80
2023-03-13T07:53:51.306Z,2.13
2023-03-13T07:54:52.615Z,3.73
2023-03-13T07:55:55.944Z,3.60
2023-03-13T07:56:59.251Z,1.83
2023-03-13T07:58:01.132Z,2.07
2023-03-13T07:59:02.489Z,1.30
2023-03-13T08:00:04.458Z,1.30
2023-03-13T08:01:17.422Z,0.80
2023-03-13T08:02:18.898Z,1.87
2023-03-13T08:03:20.733Z,1.20
2023-03-13T08:04:22.073Z,0.73
2023-03-13T08:05:23.420Z,2.30
2023-03-13T08:06:25.865Z,0.93
2023-03-13T08:07:27.220Z,2.17
2023-03-13T08:08:28.839Z,2.10
2023-03-13T08:09:32.151Z,1.50
2023-03-13T08:10:33.463Z,1.40
2023-03-13T08:11:34.834Z,3.03
2023-03-13T08:12:36.292Z,2.03
2023-03-13T08:13:38.084Z,2.47
2023-03-13T08:14:39.512Z,1.93
2023-03-13T08:15:40.982Z,1.97
2023-03-13T08:16:42.531Z,1.87
2023-03-13T08:17:43.980Z,3.07
2023-03-13T08:18:46.789Z,1.63
2023-03-13T08:19:48.105Z,1.47
2023-03-13T08:20:50.328Z,2.43
2023-03-13T08:21:51.720Z,1.53
2023-03-13T08:22:54.941Z,1.90
2023-03-13T08:23:57.876Z,2.57
2023-03-13T08:24:59.279Z,1.80
2023-03-13T08:26:07.705Z,0.83
2023-03-13T08:27:09.059Z,1.63
2023-03-13T08:28:11.471Z,1.53
2023-03-13T08:29:14.276Z,0.80
2023-03-13T08:30:15.737Z,1.13
2023-03-13T08:31:27.646Z,1.17
2023-03-13T08:32:29.115Z,2.57
2023-03-13T08:33:30.598Z,0.80
2023-03-13T08:34:31.922Z,3.17
2023-03-13T08:35:33.331Z,1.53
2023-03-13T08:36:35.756Z,1.47
2023-03-13T08:37:37.151Z,2.13
2023-03-13T08:38:38.771Z,1.83
2023-03-13T08:39:40.144Z,1.23
2023-03-13T08:40:41.567Z,2.37
2023-03-13T08:41:42.935Z,1.53
2023-03-13T08:42:44.325Z,1.93
2023-03-13T08:43:46.153Z,2.63
2023-03-13T08:44:47.584Z,1.57
2023-03-13T08:45:54.271Z,1.67
2023-03-13T08:46:56.838Z,3.20
2023-03-13T08:47:58.162Z,2.37
2023-03-13T08:48:59.601Z,2.53
2023-03-13T08:50:00.959Z,1.43
2023-03-13T08:51:06.684Z,2.13
2023-03-13T08:52:08.189Z,1.43
2023-03-13T08:53:09.593Z,2.17
2023-03-13T08:54:11.179Z,1.93
2023-03-13T08:55:12.585Z,1.10
2023-03-13T08:56:15.616Z,2.40
2023-03-13T08:57:17.896Z,2.57
2023-03-13T08:58:19.442Z,1.43
2023-03-13T08:59:20.776Z,1.63
2023-03-13T09:00:22.288Z,1.57
2023-03-13T09:01:24.879Z,1.97
2023-03-13T09:02:26.301Z,1.27
2023-03-13T09:03:28.140Z,2.10
2023-03-13T09:04:29.538Z,3.60
2023-03-13T09:05:31.005Z,2.07
2023-03-13T09:06:33.400Z,2.73
2023-03-13T09:07:34.747Z,2.53
2023-03-13T09:08:36.458Z,2.10
2023-03-13T09:09:37.843Z,2.47
2023-03-13T09:10:39.205Z,1.90
2023-03-13T09:11:40.586Z,2.00
2023-03-13T09:12:42.235Z,1.60
2023-03-13T09:13:44.971Z,3.67
2023-03-13T09:14:47.783Z,1.67
2023-03-13T09:16:02.553Z,2.73
2023-03-13T09:17:04.496Z,1.90
2023-03-13T09:18:06.551Z,2.73
2023-03-13T09:19:08.246Z,3.17
2023-03-13T09:20:10.041Z,3.10
2023-03-13T09:21:16.600Z,2.40
2023-03-13T09:22:18.319Z,2.23
2023-03-13T09:23:19.966Z,2.90
2023-03-13T09:24:21.324Z,2.07
2023-03-13T09:25:22.634Z,1.80
2023-03-13T09:26:24.199Z,2.67
2023-03-13T09:27:25.563Z,1.90
2023-03-13T09:28:27.279Z,2.30
2023-03-13T09:29:28.688Z,2.13
2023-03-13T09:30:30.065Z,1.80
2023-03-13T09:31:32.141Z,1.90
2023-03-13T09:32:33.655Z,2.03
2023-03-13T09:33:35.129Z,3.27
2023-03-13T09:34:36.463Z,2.73
2023-03-13T09:35:41.018Z,2.80
2023-03-13T09:36:42.382Z,2.43
2023-03-13T09:37:43.684Z,1.77
2023-03-13T09:38:45.330Z,2.30
2023-03-13T09:39:46.808Z,1.90
2023-03-13T09:41:04.973Z,2.33
2023-03-13T09:42:29.379Z,2.40
2023-03-13T09:43:49.380Z,2.50
2023-03-13T09:44:57.316Z,2.17
2023-03-13T09:46:01.784Z,1.53
2023-03-13T09:47:03.542Z,3.57
2023-03-13T09:48:06.911Z,2.13
2023-03-13T09:49:18.580Z,1.70
2023-03-13T09:50:22.023Z,4.87
2023-03-13T09:51:26.056Z,1.80
2023-03-13T09:52:31.743Z,3.37
2023-03-13T09:53:44.829Z,2.90
2023-03-13T09:54:48.100Z,3.90
2023-03-13T09:55:52.651Z,3.37
2023-03-13T09:56:57.183Z,3.37
2023-03-13T09:58:04.098Z,2.43
2023-03-13T09:59:12.272Z,2.07
2023-03-13T10:00:23.760Z,2.57
2023-03-13T10:01:29.832Z,2.50
2023-03-13T10:02:32.756Z,3.10
2023-03-13T10:03:37.134Z,1.83
2023-03-13T10:04:42.110Z,1.47
2023-03-13T10:05:47.304Z,3.73
2023-03-13T10:06:48.863Z,3.00
2023-03-13T10:07:55.785Z,1.80
2023-03-13T10:09:01.187Z,1.37
2023-03-13T10:10:06.783Z,1.97
2023-03-13T10:11:23.892Z,2.67
2023-03-13T10:12:28.290Z,2.03
2023-03-13T10:13:39.513Z,1.57
2023-03-13T10:14:47.554Z,3.70
2023-03-13T10:16:16.124Z,1.47
2023-03-13T10:17:19.585Z,2.47
2023-03-13T10:18:22.455Z,1.70
2023-03-13T10:19:27.651Z,2.70
2023-03-13T10:20:32.996Z,3.10
2023-03-13T10:21:36.012Z,1.83
2023-03-13T10:22:37.892Z,1.70
2023-03-13T10:23:51.613Z,2.63
2023-03-13T10:24:56.470Z,2.40
2023-03-13T10:25:58.326Z,3.60
2023-03-13T10:26:59.905Z,2.27
2023-03-13T10:28:01.663Z,2.10
2023-03-13T10:29:22.788Z,1.87
2023-03-13T10:30:31.438Z,1.60
2023-03-13T10:31:33.760Z,1.97
2023-03-13T10:32:35.402Z,1.83
2023-03-13T10:33:37.177Z,2.67
2023-03-13T10:35:05.583Z,1.10
2023-03-13T10:36:09.196Z,2.20
2023-03-13T10:37:25.760Z,2.37
2023-03-13T10:38:33.509Z,1.63
2023-03-13T10:39:43.195Z,1.90
2023-03-13T10:41:06.733Z,2.37
2023-03-13T10:42:32.092Z,3.53
2023-03-13T10:43:38.758Z,1.83
2023-03-13T10:44:40.351Z,3.00
2023-03-13T10:45:44.236Z,2.93
2023-03-13T10:46:58.291Z,1.90
2023-03-13T10:48:01.232Z,2.00
2023-03-13T10:49:05.056Z,2.13
2023-03-13T10:50:06.441Z,3.47
2023-03-13T10:51:26.564Z,3.07
2023-03-13T10:52:40.746Z,2.27
2023-03-13T10:53:42.429Z,1.63
2023-03-13T10:54:45.549Z,4.27
2023-03-13T10:55:47.398Z,1.40
2023-03-13T10:57:08.013Z,1.77
2023-03-13T10:58:25.366Z,3.53
2023-03-13T10:59:34.985Z,3.57
2023-03-13T11:00:39.169Z,2.33
2023-03-13T11:01:45.861Z,3.10
2023-03-13T11:02:47.550Z,2.53
2023-03-13T11:03:56.678Z,3.27
2023-03-13T11:05:28.708Z,2.60
2023-03-13T11:06:33.506Z,2.23
2023-03-13T11:07:45.386Z,2.13
2023-03-13T11:08:46.904Z,3.10
2023-03-13T11:09:57.690Z,3.00
2023-03-13T11:11:01.201Z,2.50
2023-03-13T11:12:10.790Z,3.00
2023-03-13T11:13:36.139Z,2.53
2023-03-13T11:14:38.822Z,2.90
2023-03-13T11:15:49.977Z,2.10
2023-03-13T11:17:04.597Z,1.73
2023-03-13T11:18:25.805Z,2.57
2023-03-13T11:19:59.827Z,3.53
2023-03-13T11:21:17.469Z,1.87
2023-03-13T11:22:55.557Z,2.70
2023-03-13T11:24:21.635Z,1.47
2023-03-13T11:25:33.859Z,2.00
2023-03-13T11:26:41.694Z,2.10
2023-03-13T11:27:47.345Z,2.97
2023-03-13T11:29:13.833Z,2.43
2023-03-13T11:30:28.005Z,2.33
2023-03-13T11:31:55.343Z,2.47
2023-03-13T11:33:07.414Z,1.80
2023-03-13T11:34:18.145Z,2.40
2023-03-13T11:35:44.171Z,2.50
2023-03-13T11:37:03.111Z,1.80
2023-03-13T11:38:14.463Z,2.57
2023-03-13T11:39:16.134Z,2.00
2023-03-13T11:40:43.865Z,1.47
2023-03-13T11:42:12.628Z,3.93
2023-03-13T11:43:32.724Z,2.03
2023-03-13T11:45:15.644Z,2.07
2023-03-13T11:46:53.052Z,4.63
2023-03-13T11:48:13.723Z,4.03
2023-03-13T11:49:34.662Z,1.77
2023-03-13T11:50:56.434Z,2.83
2023-03-13T11:52:23.477Z,3.47
2023-03-13T11:53:26.564Z,2.63
2023-03-13T11:54:42.507Z,1.60
2023-03-13T11:56:05.378Z,3.87
2023-03-13T11:57:26.112Z,3.50
2023-03-13T11:58:45.500Z,4.20
2023-03-13T12:00:12.755Z,3.83
2023-03-13T12:01:15.055Z,4.43
2023-03-13T12:02:36.489Z,3.27
2023-03-13T12:03:49.817Z,3.53
2023-03-13T12:04:57.582Z,5.37
2023-03-13T12:06:05.724Z,1.87
2023-03-13T12:07:38.189Z,2.13
2023-03-13T12:08:45.388Z,1.93
2023-03-13T12:09:55.917Z,4.13
2023-03-13T12:11:09.470Z,2.57
2023-03-13T12:12:10.904Z,2.77
2023-03-13T12:13:27.476Z,1.57
2023-03-13T12:14:36.239Z,3.07
2023-03-13T12:15:40.243Z,2.57
2023-03-13T12:16:44.470Z,2.23
2023-03-13T12:17:49.677Z,1.77
2023-03-13T12:18:52.293Z,3.83
2023-03-13T12:19:58.656Z,2.53
2023-03-13T12:21:04.398Z,2.40
2023-03-13T12:22:28.740Z,4.70
2023-03-13T12:23:42.058Z,3.47
2023-03-13T12:25:06.259Z,3.40
2023-03-13T12:26:28.203Z,2.03
2023-03-13T12:27:38.722Z,2.50
2023-03-13T12:28:40.444Z,3.37
2023-03-13T12:29:51.881Z,2.23
2023-03-13T12:31:00.201Z,2.30
2023-03-13T12:32:09.595Z,3.43
2023-03-13T12:33:24.465Z,2.33
2023-03-13T12:34:39.218Z,1.77
2023-03-13T12:35:44.051Z,3.60
2023-03-13T12:36:45.407Z,3.33
2023-03-13T12:38:05.571Z,3.40
2023-03-13T12:39:22.107Z,2.60
2023-03-13T12:40:47.732Z,2.03
2023-03-13T12:42:12.519Z,3.10
2023-03-13T12:43:24.924Z,2.87
2023-03-13T12:44:26.386Z,2.70
2023-03-13T12:45:29.376Z,2.33
2023-03-13T12:46:36.284Z,3.87
2023-03-13T12:47:56.248Z,3.33
2023-03-13T12:49:12.482Z,1.60
2023-03-13T12:50:24.008Z,3.10
2023-03-13T12:51:42.226Z,2.43
2023-03-13T12:52:56.188Z,1.33
2023-03-13T12:54:08.736Z,3.20
2023-03-13T12:55:13.084Z,1.87
2023-03-13T12:56:26.640Z,1.80
2023-03-13T12:57:27.909Z,3.17
2023-03-13T12:58:44.462Z,3.10
2023-03-13T12:59:56.365Z,2.93
2023-03-13T13:01:01.878Z,3.73
2023-03-13T13:02:13.093Z,2.73
2023-03-13T13:03:21.955Z,2.70
2023-03-13T13:04:27.666Z,3.90
2023-03-13T13:05:29.135Z,2.53
2023-03-13T13:06:49.489Z,2.33
2023-03-13T13:07:54.904Z,1.77
2023-03-13T13:09:17.665Z,1.83
2023-03-13T13:10:26.131Z,2.03
2023-03-13T13:11:33.657Z,2.53
2023-03-13T13:12:36.159Z,1.30
2023-03-13T13:13:39.484Z,2.90
2023-03-13T13:14:50.108Z,2.50
2023-03-13T13:16:03.159Z,3.27
2023-03-13T13:17:10.524Z,1.97
2023-03-13T13:18:25.878Z,2.07
2023-03-13T13:19:27.194Z,1.70
2023-03-13T13:20:31.181Z,1.87
2023-03-13T13:21:33.429Z,1.43
2023-03-13T13:22:37.815Z,4.13
2023-03-13T13:23:42.105Z,2.30
2023-03-13T13:24:51.163Z,2.50
2023-03-13T13:25:53.652Z,2.77
2023-03-13T13:26:55.098Z,2.43
2023-03-13T13:27:59.013Z,1.47
2023-03-13T13:29:01.567Z,1.73
2023-03-13T13:30:04.737Z,1.30
2023-03-13T13:31:26.199Z,1.47
2023-03-13T13:32:35.380Z,2.88
2023-03-13T13:33:38.052Z,2.05
2023-03-13T13:34:40.136Z,3.75
2023-03-13T13:35:41.569Z,1.73
2023-03-13T13:36:43.691Z,2.53
2023-03-13T13:37:46.554Z,2.55
2023-03-13T13:38:48.992Z,2.80
2023-03-13T13:39:52.330Z,1.63
2023-03-13T13:40:59.615Z,2.22
2023-03-13T13:42:23.439Z,1.97
2023-03-13T13:43:25.116Z,2.10
2023-03-13T13:44:29.876Z,2.65
2023-03-13T13:45:31.368Z,3.83
2023-03-13T13:46:33.959Z,3.83
2023-03-13T13:47:35.377Z,1.80
2023-03-13T13:48:39.670Z,3.33
2023-03-13T13:49:53.001Z,3.92
2023-03-13T13:51:11.013Z,2.33
2023-03-13T13:52:12.388Z,2.10
2023-03-13T13:53:43.146Z,2.43
2023-03-13T13:54:47.345Z,1.90
2023-03-13T13:55:48.762Z,1.77
2023-03-13T13:56:58.393Z,2.30
2023-03-13T13:58:04.109Z,2.40
2023-03-13T13:59:15.905Z,1.73
2023-03-13T14:00:25.205Z,1.90
2023-03-13T14:01:26.850Z,3.92
2023-03-13T14:02:35.541Z,1.85
2023-03-13T14:03:42.148Z,2.33
2023-03-13T14:04:47.813Z,1.83
2023-03-13T14:05:51.270Z,1.45
2023-03-13T14:06:52.908Z,3.65
2023-03-13T14:08:00.200Z,1.90
2023-03-13T14:09:14.727Z,2.33
2023-03-13T14:10:40.963Z,1.55
2023-03-13T14:11:42.355Z,2.08
2023-03-13T14:12:47.667Z,5.25
2023-03-13T14:14:07.724Z,3.65
2023-03-13T14:15:19.931Z,3.55
2023-03-13T14:16:24.968Z,3.45
2023-03-13T14:17:26.409Z,1.70
2023-03-13T14:18:29.230Z,3.08
2023-03-13T14:19:35.205Z,5.25
2023-03-13T14:20:37.565Z,2.33
2023-03-13T14:21:39.388Z,2.58
2023-03-13T14:22:44.663Z,2.88
2023-03-13T14:23:47.648Z,1.60
2023-03-13T14:24:58.483Z,1.80
2023-03-13T14:26:08.448Z,2.47
2023-03-13T14:27:19.541Z,2.90
2023-03-13T14:28:22.547Z,2.53
2023-03-13T14:29:27.304Z,2.38
2023-03-13T14:30:28.679Z,1.38
2023-03-13T14:31:31.826Z,2.30
2023-03-13T14:32:33.316Z,3.22
2023-03-13T14:33:35.295Z,2.55
2023-03-13T14:34:36.635Z,2.28
2023-03-13T14:35:39.342Z,1.58
2023-03-13T14:37:01.460Z,1.73
2023-03-13T14:38:16.014Z,2.25
2023-03-13T14:39:19.094Z,1.73
2023-03-13T14:40:20.523Z,2.38
2023-03-13T14:41:28.361Z,1.77
2023-03-13T14:42:37.520Z,2.90
2023-03-13T14:43:42.346Z,3.05
2023-03-13T14:44:46.517Z,2.15
2023-03-13T14:45:49.157Z,1.20
2023-03-13T14:46:53.342Z,2.55